This is the latest recevied weather packets stored in our database for station/object KR4ELZ. If no packets are shown the sender has not sent any weather packets the latest 10 day(s).
| Time | Temp. | Humidity | Pressure | Rain* | Wind** | Luminosity | Snow |
|---|---|---|---|---|---|---|---|
| 1777562859 | 16.67° C | 52% | 1016.4 hPa | 0 mm | - | 259 W/m² | - |
| 1777562556 | 16.67° C | 52% | 1016.6 hPa | 0 mm | - | 463 W/m² | - |
| 1777562254 | 16.11° C | 52% | 1016.7 hPa | 0 mm | - | 397 W/m² | - |
| 1777561952 | 16.11° C | 52% | 1016.6 hPa | 0 mm | - | 335 W/m² | - |
| 1777561649 | 16.11° C | 51% | 1016.4 hPa | 0 mm | - | 276 W/m² | - |
| 1777561344 | 16.67° C | 50% | 1016.9 hPa | 0 mm | - | 401 W/m² | - |
| 1777561040 | 16.67° C | 53% | 1016.8 hPa | 0 mm | - | 409 W/m² | - |
| 1777560735 | 16.11° C | 54% | 1016.6 hPa | 0 mm | - | 431 W/m² | - |
| 1777560432 | 15.56° C | 57% | 1016.4 hPa | 0 mm | - | 273 W/m² | - |
| 1777560130 | 16.11° C | 56% | 1016.5 hPa | 0 mm | - | 281 W/m² | - |
| 1777559827 | 16.67° C | 55% | 1016.5 hPa | 0 mm | - | 421 W/m² | - |
| 1777559523 | 15.56° C | 57% | 1016.5 hPa | 0 mm | - | 403 W/m² | - |
| 1777559220 | 15.56° C | 56% | 1016.3 hPa | 0 mm | - | 404 W/m² | - |
| 1777558920 | 15.56° C | 59% | 1016.5 hPa | 0 mm | - | 391 W/m² | - |
| 1777558616 | 15.56° C | 59% | 1016.5 hPa | 0 mm | - | 371 W/m² | - |
| 1777558312 | 15° C | 58% | 1016.4 hPa | 0 mm | - | 388 W/m² | - |
| 1777558009 | 15° C | 59% | 1016.4 hPa | 0 mm | - | 353 W/m² | - |
| 1777557705 | 15° C | 61% | 1016.4 hPa | 0 mm | - | 335 W/m² | - |
| 1777557402 | 14.44° C | 62% | 1016.4 hPa | 0 mm | - | 316 W/m² | - |
| 1777557098 | 14.44° C | 63% | 1016.5 hPa | 0 mm | - | 311 W/m² | - |
| 1777556793 | 14.44° C | 63% | 1016.7 hPa | 0 mm | - | 302 W/m² | - |
| 1777556491 | 14.44° C | 66% | 1016.7 hPa | 0 mm | - | 268 W/m² | - |
| 1777556190 | 13.89° C | 64% | 1016.6 hPa | 0 mm | - | 272 W/m² | - |
| 1777555886 | 13.89° C | 67% | 1016.3 hPa | 0 mm | - | 252 W/m² | - |
| 1777555582 | 13.33° C | 67% | 1016.2 hPa | 0 mm | - | 179 W/m² | - |
* Rain latest hour (hover to see other rain measurements)
** Current wind speed in m/s (hover to see current wind gust speed)